Kezdőlap
METAR-TAF:

METAR-TAF

Repülőterek :

Kuala Lumpur, Malajzia

földrajzi szélesség: 02-44N, földrajzi hosszúság: 101-42E, magasság: 21 m

Jelenlegi meteorológiai megfigyelések

A jelentés 38 perccel ezelõtt készült, 17:00 UTC
Keleti szél 5 kt, kelet-északkeleti és kelet-délkeleti között változik
Hőmérséklet 27°C
Páratartalom 79%
Légköri nyomás 1009 hPa
Látótávolság: 8000 m
Kevés felhő 3000 lábon
Szórványos felhőzet 14000 lábon
Szakadozott felhőzet 28000 lábon

METAR: WMKK 251700Z 09005KT 060V120 8000 FEW030 SCT140 BKN280 27/23 Q1009 NOSIG

Idő: 01:38 (17:38 UTC)

Előrejelzés

A jelentés 38 perccel ezelõtt készült, 17:00 UTC
Az előrejelzés 25-én 18 óra UTC és 27-én 00 óra UTC között érvényes
Északkeleti szél 5 kt
Látótávolság 10 km, vagy több
Kevés felhő 1800 lábon

TAF: WMKK 251700Z 2518/2700 05005KT 9999 FEW018

Meteorológiai megfigyelések és előrejelzések több, mint 4000 repülőtéren (METAR és TAF jelentéseket).

A térképen piros és sárga pontok jelzik az elérhető meteorológiai állomásokat.

Mozgassa az egeret a pont fölött, hogy megjelenjen az állomás neve.

Azután kattintson az időjárási megfigyelések és előrejelzések megtekintéséhez.

A térkép megváltoztatása: kattintson a fekete keresztel jelölt zöld gombra ráközelítéshez, a vonallal jelölt zöld gombra távolításhoz, vagy a zöld nyilakra a szomszédos térképek eléréséhez.


METAR-TAF: